Poplar, Minnesota
Current Conditions -  °F | °C
As of 12:13 PM on Saturday 25 Oct 2014 (Local Time) from KSAZ Reporting Station
Clear Clear  
Wind Chill: 55°   Ceiling: Unl
Heat Index: 55°   Visibility: 10mi
Dew Point: 27°   Wind: 20mph
Humidity: 33%   Direction: 300°WNW
Pressure: 30.05"   Gusts: 24mph
Location:  46.4416°N, 94.6389°W
Report Text: KSAZ 251713Z AUTO 30017G21KT 10SM CLR 13/M03 A3005 RMK AO2
Loading
Personal Weather Stations






























Interactive Weather Map
Tropical Storm Tracking
New forecast layout! Learn more

10-Day Weather Forecast

Advertisements
Track Severe Weather on mobile